Terminal Aerodrome Forecast
Issued by NWS

Home | Current Version | Previous Version | Text Only | Print | Product List | Glossary On
Versions: 1 2 3 4 5 6 7 8 9 10 11 12 13 14 15 16 17 18 19 20 21 22 23 24 25 26 27 28 29 30 31 32 33 34 35 36
800
FTUS43 KDLH 192339
TAFBRD
TAF
KBRD 192339Z 2000/2024 13011KT P6SM FEW110 BKN160 WS020/18040KT
     FM200300 14009KT P6SM BKN160 WS020/18045KT
     FM201100 14011KT 6SM -DZ BR OVC010 WS020/19040KT
     FM201400 16012G18KT 5SM -RA BR VCTS OVC007CB
     FM202100 20007KT 5SM -DZ BR OVC008
     FM202300 26010KT 6SM BR VCSH BKN015 OVC030=

USA.gov is the U.S. government's official web portal to all federal, state and local government web resources and services.